Time;durP1;ratioP1;P1;durP2;ratioP2;P2;SDS_P1;SDS_P2;PMS_P1;PMS_P2;Temp;Humidity;BMP_temperature;BMP_pressure;BME280_temperature;BME280_humidity;BME280_pressure;Samples;Min_cycle;Max_cycle;Signal;HPM_P1;HPM_P2
2023/04/30 00:00:28;;;;;;;19.50;16.50;;;;;;;11.33;81.12;99677.99;219288;1257;140209;-66
2023/04/30 00:05:52;;;;;;;19.90;15.50;;;;;;;11.22;80.99;99691.15;218669;1257;140484;-65
2023/04/30 00:10:55;;;;;;;22.80;18.20;;;;;;;11.03;80.70;99702.38;217752;1256;140464;-70
2023/04/30 00:15:58;;;;;;;19.80;15.30;;;;;;;10.79;80.43;99710.71;217633;1257;140525;-66
2023/04/30 00:21:00;;;;;;;24.50;16.30;;;;;;;10.60;80.19;99715.02;218506;1257;140704;-66
2023/04/30 00:26:04;;;;;;;17.40;13.00;;;;;;;10.40;80.05;99723.02;217659;1257;140560;-66
2023/04/30 00:31:08;;;;;;;20.20;15.20;;;;;;;10.27;80.41;99732.70;217499;1257;140511;-66
2023/04/30 00:36:11;;;;;;;20.40;13.00;;;;;;;10.18;80.52;99734.98;217701;1257;140471;-66
2023/04/30 00:41:15;;;;;;;33.30;16.10;;;;;;;10.10;80.62;99751.30;217329;1257;140893;-65
2023/04/30 00:46:19;;;;;;;14.90;13.30;;;;;;;9.95;80.41;99761.03;217428;1260;141076;-66
2023/04/30 00:51:23;;;;;;;21.00;14.20;;;;;;;9.76;80.12;99768.27;217689;1257;141359;-67
2023/04/30 00:56:27;;;;;;;15.30;12.10;;;;;;;9.59;80.27;99776.25;217755;1256;142156;-68
2023/04/30 01:01:31;;;;;;;18.30;11.20;;;;;;;9.43;80.11;99784.67;218066;1257;140180;-68
2023/04/30 01:06:35;;;;;;;13.00;11.00;;;;;;;9.31;80.27;99795.63;217382;1259;140169;-69
2023/04/30 01:11:45;;;;;;;14.10;12.60;;;;;;;9.17;80.14;99804.23;218773;1257;231423;-70
2023/04/30 01:17:27;;;;;;;12.80;9.90;;;;;;;9.04;80.13;99807.96;217749;1257;232839;-70
2023/04/30 01:23:03;;;;;;;9.80;8.00;;;;;;;8.86;80.02;99821.42;217627;1259;142020;-71
2023/04/30 01:28:15;;;;;;;11.70;9.60;;;;;;;8.72;79.95;99826.44;217505;1259;1194506;-71
2023/04/30 01:33:18;;;;;;;10.60;7.40;;;;;;;8.64;80.05;99831.13;220412;1257;141287;-72
2023/04/30 01:38:27;;;;;;;12.70;8.50;;;;;;;8.61;79.85;99835.49;220597;1257;140465;-72
2023/04/30 01:43:38;;;;;;;17.50;12.50;;;;;;;8.60;79.94;99836.44;220571;1256;140889;-74
2023/04/30 01:49:11;;;;;;;9.30;8.10;;;;;;;8.59;80.17;99838.90;219528;1257;141125;-74
2023/04/30 01:54:33;;;;;;;9.10;7.60;;;;;;;8.63;80.01;99842.05;219101;1257;140776;-70
2023/04/30 01:59:38;;;;;;;11.10;8.10;;;;;;;8.64;79.86;99841.06;217568;1259;140591;-70
2023/04/30 02:04:42;;;;;;;15.60;9.00;;;;;;;8.62;79.80;99842.14;218535;1257;140260;-68
2023/04/30 02:09:46;;;;;;;14.50;11.10;;;;;;;8.63;79.75;99843.89;217558;1257;142342;-72
2023/04/30 02:14:48;;;;;;;14.00;9.90;;;;;;;8.60;79.83;99849.02;217459;1262;139992;-68
2023/04/30 02:19:51;;;;;;;17.30;11.70;;;;;;;8.58;79.82;99854.90;218391;1259;141160;-67
2023/04/30 02:24:56;;;;;;;13.40;9.30;;;;;;;8.57;79.77;99862.80;218351;1257;139875;-69
2023/04/30 02:30:00;;;;;;;15.30;10.80;;;;;;;8.56;79.77;99866.17;219497;1257;140438;-67
2023/04/30 02:35:04;;;;;;;11.70;9.50;;;;;;;8.58;79.82;99868.62;217381;1257;141051;-67
2023/04/30 02:40:09;;;;;;;16.20;10.60;;;;;;;8.58;79.52;99879.25;218491;1257;140734;-65
2023/04/30 02:45:12;;;;;;;11.40;9.30;;;;;;;8.58;79.57;99884.82;219274;1257;140076;-66
2023/04/30 02:50:15;;;;;;;12.50;9.70;;;;;;;8.58;79.21;99888.53;219085;1257;140324;-67
2023/04/30 02:55:18;;;;;;;14.00;9.20;;;;;;;8.58;79.41;99888.81;218962;1260;141495;-70
2023/04/30 03:00:22;;;;;;;16.10;11.00;;;;;;;8.56;78.81;99897.89;218275;1260;139824;-74
2023/04/30 03:05:25;;;;;;;11.30;9.10;;;;;;;8.49;78.69;99904.54;218272;1259;141392;-72
2023/04/30 03:10:29;;;;;;;11.80;8.50;;;;;;;8.41;78.46;99911.20;218771;1259;141698;-67
2023/04/30 03:15:34;;;;;;;12.60;8.90;;;;;;;8.36;78.21;99913.97;218226;1260;139830;-67
2023/04/30 03:20:37;;;;;;;15.50;9.70;;;;;;;8.27;77.79;99917.21;217785;1260;153296;-67
2023/04/30 03:25:40;;;;;;;11.90;8.30;;;;;;;8.19;77.69;99922.79;220451;1259;140453;-68
2023/04/30 03:30:43;;;;;;;18.50;8.90;;;;;;;8.10;77.68;99934.36;218714;1257;140557;-67
2023/04/30 03:35:49;;;;;;;8.40;7.50;;;;;;;8.01;77.54;99936.85;220518;1259;139240;-68
2023/04/30 03:40:53;;;;;;;9.20;7.90;;;;;;;7.92;77.41;99936.22;220249;1257;139797;-67
2023/04/30 03:45:56;;;;;;;15.10;7.70;;;;;;;7.85;77.30;99942.98;220507;1260;139696;-68
2023/04/30 03:50:59;;;;;;;11.30;8.90;;;;;;;7.85;77.09;99950.34;219970;1257;141411;-68
2023/04/30 03:56:02;;;;;;;9.10;7.90;;;;;;;8.36;76.97;99959.27;218286;1257;140202;-67
2023/04/30 04:01:06;;;;;;;12.00;7.30;;;;;;;9.03;76.21;99967.30;218896;1260;140537;-68
2023/04/30 04:06:09;;;;;;;8.50;7.60;;;;;;;9.64;75.51;99974.23;218017;1259;140051;-67
2023/04/30 04:11:12;;;;;;;10.90;8.80;;;;;;;9.92;74.93;99981.27;218891;1259;141760;-67
2023/04/30 04:16:15;;;;;;;9.20;8.30;;;;;;;9.92;74.10;99989.63;218051;1259;139691;-68
2023/04/30 04:21:20;;;;;;;11.30;9.40;;;;;;;9.73;73.67;99993.95;217753;1260;139907;-67
2023/04/30 04:26:24;;;;;;;11.30;7.60;;;;;;;9.96;73.22;99999.05;218370;1259;140707;-68
2023/04/30 04:31:30;;;;;;;10.40;7.70;;;;;;;10.14;72.54;100003.23;218026;1257;140053;-67
2023/04/30 04:36:33;;;;;;;15.90;11.00;;;;;;;9.87;72.43;100012.55;218152;1257;141437;-67
2023/04/30 04:41:37;;;;;;;9.10;7.60;;;;;;;9.63;72.54;100018.84;217735;1257;141571;-68
2023/04/30 04:46:44;;;;;;;11.00;8.90;;;;;;;9.46;72.55;100025.83;218207;1257;139577;-67
2023/04/30 04:51:48;;;;;;;14.80;9.60;;;;;;;9.33;72.68;100030.36;218028;1260;140848;-67
2023/04/30 04:56:50;;;;;;;11.20;7.90;;;;;;;9.21;72.59;100035.80;218574;1257;140982;-68
2023/04/30 05:01:52;;;;;;;16.40;9.50;;;;;;;9.09;72.49;100046.22;218458;1260;140153;-67
2023/04/30 05:06:55;;;;;;;11.90;10.10;;;;;;;9.03;72.66;100053.91;217949;1258;141714;-67
2023/04/30 05:11:56;;;;;;;15.30;8.00;;;;;;;9.03;72.73;100058.90;218406;1260;141526;-67
2023/04/30 05:16:58;;;;;;;14.40;9.10;;;;;;;9.24;72.46;100073.63;219767;1256;140932;-68
2023/04/30 05:22:00;;;;;;;10.80;7.90;;;;;;;9.41;72.09;100080.44;218216;1258;141323;-68
2023/04/30 05:27:04;;;;;;;11.30;7.50;;;;;;;9.67;71.43;100085.64;218579;1260;141217;-68
2023/04/30 05:32:07;;;;;;;11.20;7.90;;;;;;;11.35;69.71;100087.36;218098;1257;139944;-68
2023/04/30 05:37:11;;;;;;;9.20;7.40;;;;;;;12.79;69.24;100093.02;220468;1257;141168;-68
2023/04/30 05:42:14;;;;;;;8.70;7.20;;;;;;;13.47;67.20;100097.42;219242;1257;141378;-68
2023/04/30 05:47:17;;;;;;;11.50;6.60;;;;;;;15.68;63.89;100101.16;220258;1257;141013;-69
2023/04/30 05:52:20;;;;;;;9.20;7.20;;;;;;;15.86;63.25;100113.88;218288;1260;140927;-68
2023/04/30 05:57:24;;;;;;;9.30;8.10;;;;;;;15.16;62.85;100120.41;219380;1257;141719;-68
2023/04/30 06:02:26;;;;;;;7.90;6.90;;;;;;;14.54;62.51;100124.08;218494;1257;142897;-68
2023/04/30 06:07:30;;;;;;;10.20;6.40;;;;;;;13.94;62.44;100132.69;218495;1260;139763;-67
2023/04/30 06:12:33;;;;;;;7.90;5.70;;;;;;;13.26;62.59;100137.55;218837;1260;140152;-68
2023/04/30 06:17:37;;;;;;;7.20;5.40;;;;;;;12.76;62.89;100140.89;218474;1258;139479;-67
2023/04/30 06:22:41;;;;;;;9.70;4.80;;;;;;;12.33;62.92;100140.02;218640;1257;139509;-68
2023/04/30 06:27:44;;;;;;;5.90;4.50;;;;;;;12.06;63.43;100141.41;217789;1260;139749;-67
2023/04/30 06:32:46;;;;;;;6.80;5.10;;;;;;;11.91;63.55;100140.30;217623;1257;140199;-69
2023/04/30 06:37:48;;;;;;;5.40;4.20;;;;;;;11.77;63.35;100149.73;218186;1260;139217;-69
2023/04/30 06:42:53;;;;;;;9.60;5.10;;;;;;;11.75;63.63;100152.89;217816;1258;140563;-68
2023/04/30 06:47:58;;;;;;;5.40;4.10;;;;;;;12.34;63.59;100152.27;217680;1257;140693;-68
2023/04/30 06:53:01;;;;;;;11.20;4.90;;;;;;;13.20;62.63;100155.67;218907;1257;140515;-68
2023/04/30 06:58:04;;;;;;;9.10;4.80;;;;;;;14.53;61.63;100159.89;217626;1256;140213;-68
2023/04/30 07:03:07;;;;;;;4.30;3.80;;;;;;;16.12;60.04;100162.23;218297;1260;140486;-68
2023/04/30 07:08:11;;;;;;;6.90;4.00;;;;;;;17.54;58.14;100164.45;218245;1257;140253;-68
2023/04/30 07:13:15;;;;;;;8.60;4.70;;;;;;;17.77;56.50;100172.16;218482;1258;140237;-68
2023/04/30 07:18:18;;;;;;;4.90;4.10;;;;;;;17.92;56.22;100172.59;218481;1256;141146;-68
2023/04/30 07:23:21;;;;;;;6.40;4.40;;;;;;;18.07;54.85;100177.99;218140;1257;140226;-68
2023/04/30 07:28:23;;;;;;;4.10;3.30;;;;;;;18.18;54.37;100176.58;220363;1257;140421;-68
2023/04/30 07:33:26;;;;;;;4.70;3.50;;;;;;;18.14;53.16;100183.00;218203;1257;141610;-68
2023/04/30 07:38:29;;;;;;;3.90;2.50;;;;;;;17.97;52.31;100185.96;220448;1257;139427;-69
2023/04/30 07:43:33;;;;;;;7.60;4.10;;;;;;;17.77;51.98;100194.60;218081;1258;139386;-68
2023/04/30 07:48:37;;;;;;;7.10;3.60;;;;;;;17.80;52.20;100198.27;219128;1257;140140;-68
2023/04/30 07:53:42;;;;;;;4.60;2.60;;;;;;;17.58;51.22;100203.75;217980;1256;140804;-67
2023/04/30 07:58:47;;;;;;;10.00;3.20;;;;;;;17.57;51.42;100204.88;217655;1258;139388;-68
2023/04/30 08:03:51;;;;;;;8.20;3.40;;;;;;;17.55;51.00;100210.42;219736;1256;141449;-69
2023/04/30 08:08:55;;;;;;;3.60;2.40;;;;;;;17.52;50.63;100208.96;217823;1260;139703;-68
2023/04/30 08:13:57;;;;;;;7.10;2.70;;;;;;;17.38;49.66;100213.17;217855;1257;139272;-68
2023/04/30 08:19:01;;;;;;;2.70;2.30;;;;;;;17.01;48.78;100214.11;218092;1260;141253;-68
2023/04/30 08:24:05;;;;;;;3.00;2.10;;;;;;;16.76;48.76;100221.05;218368;1257;139983;-68
2023/04/30 08:29:08;;;;;;;7.00;2.50;;;;;;;16.61;47.99;100224.13;218248;1257;139568;-68
2023/04/30 08:34:10;;;;;;;4.90;2.70;;;;;;;16.47;47.88;100228.63;217751;1257;140228;-67
2023/04/30 08:39:13;;;;;;;5.50;2.80;;;;;;;16.44;47.95;100231.15;218439;1256;140589;-69
2023/04/30 08:44:22;;;;;;;4.60;2.00;;;;;;;16.48;48.03;100238.23;218665;1257;139129;-68
2023/04/30 08:49:27;;;;;;;4.10;2.30;;;;;;;16.42;47.34;100241.31;218450;1259;139453;-68
2023/04/30 08:54:34;;;;;;;2.10;1.90;;;;;;;16.43;47.11;100242.94;217673;1260;140525;-68
2023/04/30 08:59:37;;;;;;;3.20;2.20;;;;;;;16.40;46.74;100250.13;217792;1257;139574;-68
2023/04/30 09:04:40;;;;;;;7.00;3.00;;;;;;;16.48;46.45;100250.91;218738;1260;139876;-68
2023/04/30 09:09:43;;;;;;;3.70;2.40;;;;;;;16.53;45.99;100248.73;219845;1256;140188;-68
2023/04/30 09:15:05;;;;;;;2.90;2.40;;;;;;;16.40;45.70;100256.42;219890;1256;139505;-69
2023/04/30 09:20:12;;;;;;;8.00;2.80;;;;;;;16.38;45.45;100259.95;218520;1256;140459;-68
2023/04/30 09:25:15;;;;;;;3.40;2.40;;;;;;;16.25;45.32;100262.39;220383;1256;139664;-70
2023/04/30 09:30:33;;;;;;;8.90;3.20;;;;;;;16.08;45.64;100256.85;219825;1256;142221;-69
2023/04/30 09:35:38;;;;;;;4.80;2.30;;;;;;;15.95;45.67;100257.88;220442;1256;139829;-68
2023/04/30 09:40:44;;;;;;;4.40;2.10;;;;;;;16.02;45.40;100256.69;219530;1256;139963;-68
2023/04/30 09:45:50;;;;;;;6.80;2.20;;;;;;;16.13;44.78;100258.23;219995;1256;141742;-69
2023/04/30 09:50:53;;;;;;;2.90;2.10;;;;;;;16.23;44.84;100260.71;218793;1256;140815;-69
2023/04/30 09:56:00;;;;;;;1.70;1.40;;;;;;;16.37;44.97;100255.70;218014;1257;139752;-70
2023/04/30 10:01:11;;;;;;;2.20;1.70;;;;;;;16.38;44.13;100258.66;218555;1256;139058;-69
2023/04/30 10:06:17;;;;;;;1.80;1.60;;;;;;;16.47;43.55;100257.92;217727;1256;140040;-69
2023/04/30 10:11:24;;;;;;;;;;;;;;;16.52;43.57;100255.78;217928;1256;140454;-69
2023/04/30 10:17:03;;;;;;;2.50;1.90;;;;;;;16.34;43.20;100258.64;218605;1256;126324;-68
2023/04/30 10:22:07;;;;;;;2.90;1.50;;;;;;;16.28;42.88;100258.21;218652;1260;139532;-69
2023/04/30 10:27:09;;;;;;;1.70;1.60;;;;;;;16.34;42.82;100255.67;217699;1256;140151;-68
2023/04/30 10:32:13;;;;;;;2.60;1.70;;;;;;;16.36;42.72;100260.75;218500;1256;139476;-67
2023/04/30 10:37:17;;;;;;;2.90;1.80;;;;;;;16.13;41.70;100255.86;217952;1257;140030;-68
2023/04/30 10:42:20;;;;;;;3.70;2.10;;;;;;;15.91;41.99;100257.14;217872;1257;140203;-68
2023/04/30 10:47:29;;;;;;;0.90;0.90;;;;;;;16.03;42.15;100254.39;217690;1257;139644;-67
2023/04/30 10:52:31;;;;;;;5.60;1.90;;;;;;;16.05;41.16;100258.27;218714;1256;139362;-67
2023/04/30 10:57:41;;;;;;;5.30;2.40;;;;;;;16.12;41.26;100255.55;217578;1257;140191;-67
2023/04/30 11:02:47;;;;;;;2.40;1.30;;;;;;;16.25;41.16;100255.23;218235;1257;140127;-68
2023/04/30 11:07:57;;;;;;;3.50;1.30;;;;;;;16.26;40.42;100258.09;217974;1257;140519;-68
2023/04/30 11:13:06;;;;;;;5.10;1.60;;;;;;;16.14;40.39;100253.45;218070;1257;139502;-68
2023/04/30 11:18:08;;;;;;;1.50;1.40;;;;;;;16.11;40.13;100256.13;219523;1256;140261;-69
2023/04/30 11:23:16;;;;;;;3.40;1.70;;;;;;;16.16;40.15;100256.21;220455;1256;139437;-69
2023/04/30 11:28:35;;;;;;;3.30;2.00;;;;;;;16.14;40.38;100258.09;218461;1256;139097;-68
2023/04/30 11:33:40;;;;;;;2.30;1.50;;;;;;;16.04;40.10;100260.36;220041;1256;139403;-68
2023/04/30 11:38:42;;;;;;;3.20;2.70;;;;;;;15.87;39.94;100262.44;218863;1256;140197;-68
2023/04/30 11:43:45;;;;;;;4.70;1.90;;;;;;;15.87;40.25;100262.94;217903;1257;140207;-68
2023/04/30 11:48:48;;;;;;;3.10;2.00;;;;;;;15.67;40.15;100257.59;217728;1256;140555;-68
2023/04/30 11:53:52;;;;;;;3.50;2.40;;;;;;;15.56;40.40;100267.64;218102;1256;140785;-68
2023/04/30 11:58:54;;;;;;;2.40;1.50;;;;;;;15.67;40.90;100257.32;218052;1256;140182;-68
2023/04/30 12:03:57;;;;;;;2.90;2.50;;;;;;;15.80;40.97;100257.23;217752;1257;139393;-68
2023/04/30 12:09:03;;;;;;;3.60;2.40;;;;;;;15.81;40.73;100261.54;218081;1259;139391;-68
2023/04/30 12:14:09;;;;;;;6.70;2.60;;;;;;;15.73;40.43;100254.15;217756;1256;142107;-68
2023/04/30 12:19:11;;;;;;;4.40;1.90;;;;;;;15.70;40.72;100248.75;217866;1257;139322;-67
2023/04/30 12:24:18;;;;;;;4.90;2.10;;;;;;;15.63;41.02;100257.88;217898;1257;139615;-68
2023/04/30 12:29:21;;;;;;;;;;;;;;;15.59;41.08;100253.86;218103;1259;140284;-69
2023/04/30 12:34:26;;;;;;;2.90;2.10;;;;;;;15.52;41.04;100248.46;217977;1260;125744;-68
2023/04/30 12:39:33;;;;;;;2.60;1.90;;;;;;;15.49;41.21;100241.23;218405;1256;140422;-68
2023/04/30 12:44:46;;;;;;;4.10;1.60;;;;;;;15.54;41.18;100243.54;218318;1257;139392;-69
2023/04/30 12:49:49;;;;;;;4.90;1.70;;;;;;;15.55;40.77;100242.59;219083;1256;139886;-68
2023/04/30 12:54:53;;;;;;;4.70;2.00;;;;;;;15.43;40.70;100242.94;217756;1257;139477;-68
2023/04/30 12:59:58;;;;;;;7.40;2.30;;;;;;;15.42;41.00;100240.30;218014;1257;141397;-68
2023/04/30 13:05:00;;;;;;;2.20;1.30;;;;;;;15.53;40.88;100237.29;219513;1257;140035;-69
2023/04/30 13:10:04;;;;;;;3.30;1.90;;;;;;;15.50;40.58;100238.45;219443;1256;140716;-69
2023/04/30 13:15:07;;;;;;;9.00;1.40;;;;;;;15.44;40.55;100239.57;220299;1256;139790;-68
2023/04/30 13:20:10;;;;;;;8.30;2.70;;;;;;;15.50;40.68;100236.72;220583;1256;139902;-70
2023/04/30 13:25:13;;;;;;;2.20;1.40;;;;;;;15.53;40.58;100239.92;220345;1256;273571;-69
2023/04/30 13:30:17;;;;;;;3.40;1.20;;;;;;;15.47;40.47;100242.02;220188;1257;139944;-71
2023/04/30 13:35:21;;;;;;;4.40;1.40;;;;;;;15.61;40.75;100235.13;217465;1257;142363;-70
2023/04/30 13:40:24;;;;;;;2.60;1.30;;;;;;;15.62;40.08;100235.94;219013;1257;140014;-72
2023/04/30 13:45:28;;;;;;;3.40;1.70;;;;;;;15.39;39.94;100226.30;218813;1256;139543;-69
2023/04/30 13:50:31;;;;;;;3.70;1.40;;;;;;;15.38;40.30;100228.98;218955;1256;140441;-73
2023/04/30 13:55:35;;;;;;;2.40;1.50;;;;;;;15.42;40.18;100231.91;217852;1259;139148;-71
2023/04/30 14:00:39;;;;;;;9.90;1.50;;;;;;;15.38;39.72;100230.54;217739;1256;139642;-69
2023/04/30 14:05:43;;;;;;;3.70;1.50;;;;;;;15.35;39.63;100225.92;218757;1255;140058;-72
2023/04/30 14:10:46;;;;;;;1.60;1.50;;;;;;;15.27;39.51;100226.20;218419;1257;140245;-71
2023/04/30 14:15:51;;;;;;;2.60;1.20;;;;;;;15.30;39.43;100224.01;217627;1259;141459;-67
2023/04/30 14:20:54;;;;;;;2.70;1.20;;;;;;;15.31;39.17;100226.80;217978;1259;139559;-68
2023/04/30 14:25:59;;;;;;;5.00;1.00;;;;;;;15.24;38.56;100227.56;217842;1257;143445;-68
2023/04/30 14:31:03;;;;;;;4.90;1.80;;;;;;;15.11;38.29;100221.77;218999;1256;140606;-67
2023/04/30 14:36:07;;;;;;;1.60;1.10;;;;;;;15.03;38.48;100228.29;218178;1256;140391;-66
2023/04/30 14:41:12;;;;;;;2.10;1.70;;;;;;;14.97;38.51;100224.52;218155;1257;139091;-67
2023/04/30 14:46:16;;;;;;;3.80;1.30;;;;;;;14.89;38.60;100232.60;218538;1257;139416;-69
2023/04/30 14:51:20;;;;;;;7.00;1.20;;;;;;;14.87;38.64;100230.21;218351;1257;140646;-72
2023/04/30 14:56:23;;;;;;;1.60;1.20;;;;;;;14.84;38.68;100230.88;219019;1257;140106;-72
2023/04/30 15:01:31;;;;;;;2.00;1.80;;;;;;;14.84;38.63;100234.89;218555;1256;139162;-73
2023/04/30 15:06:34;;;;;;;1.90;1.40;;;;;;;14.74;38.49;100230.58;217721;1257;139870;-72
2023/04/30 15:11:37;;;;;;;2.90;1.30;;;;;;;14.75;38.66;100229.26;220689;1256;139422;-72
2023/04/30 15:16:41;;;;;;;2.80;1.50;;;;;;;14.76;38.36;100231.73;218630;1256;139588;-72
2023/04/30 15:21:46;;;;;;;1.20;1.00;;;;;;;14.68;37.88;100230.25;219304;1256;140323;-73
2023/04/30 15:26:53;;;;;;;6.30;1.40;;;;;;;14.57;37.75;100237.84;219105;1256;139559;-72
2023/04/30 15:31:58;;;;;;;7.10;1.80;;;;;;;14.53;37.92;100230.85;219020;1256;139676;-68
2023/04/30 15:37:02;;;;;;;3.50;1.90;;;;;;;14.55;38.41;100234.52;218308;1255;140141;-67
2023/04/30 15:42:04;;;;;;;1.60;1.50;;;;;;;14.52;38.11;100239.27;218207;1257;139944;-67
2023/04/30 15:47:07;;;;;;;1.50;1.40;;;;;;;14.41;38.13;100234.48;218272;1256;139649;-67
2023/04/30 15:52:10;;;;;;;4.30;2.40;;;;;;;14.30;38.45;100233.31;217790;1257;139204;-67
2023/04/30 15:57:13;;;;;;;3.50;1.30;;;;;;;14.20;38.53;100234.83;218752;1259;140364;-67
2023/04/30 16:02:16;;;;;;;9.60;2.10;;;;;;;14.07;38.49;100236.94;217775;1257;140529;-67
2023/04/30 16:07:20;;;;;;;5.20;1.80;;;;;;;14.00;38.56;100241.23;218315;1256;139641;-67
2023/04/30 16:12:23;;;;;;;2.70;1.60;;;;;;;13.84;38.80;100239.20;217654;1257;140387;-66
2023/04/30 16:17:25;;;;;;;3.10;1.80;;;;;;;13.75;39.20;100239.35;218190;1257;139308;-68
2023/04/30 16:22:29;;;;;;;1.50;1.40;;;;;;;13.70;39.42;100242.69;218480;1256;140177;-65
2023/04/30 16:27:33;;;;;;;1.50;1.30;;;;;;;13.66;39.83;100240.15;218114;1257;139984;-66
2023/04/30 16:32:39;;;;;;;3.10;1.60;;;;;;;13.53;39.38;100237.08;219024;1256;139299;-70
2023/04/30 16:37:45;;;;;;;1.40;1.30;;;;;;;13.42;39.62;100235.36;217819;1259;139180;-69
2023/04/30 16:42:58;;;;;;;1.50;1.20;;;;;;;13.35;39.83;100233.34;218873;1257;139604;-69
2023/04/30 16:48:03;;;;;;;2.30;2.00;;;;;;;13.24;40.05;100229.00;218164;1259;139530;-69
2023/04/30 16:53:06;;;;;;;1.80;1.50;;;;;;;13.15;40.27;100233.42;219151;1257;139697;-66
2023/04/30 16:58:14;;;;;;;2.10;1.70;;;;;;;13.01;40.48;100235.31;219008;1257;139860;-66
2023/04/30 17:03:17;;;;;;;5.70;2.50;;;;;;;12.90;40.58;100233.10;219421;1256;139910;-65
2023/04/30 17:08:23;;;;;;;4.10;1.50;;;;;;;12.82;40.74;100236.33;220678;1256;140490;-68
2023/04/30 17:13:25;;;;;;;4.90;2.30;;;;;;;12.70;41.23;100241.75;220341;1257;140843;-69
2023/04/30 17:18:29;;;;;;;4.10;1.70;;;;;;;12.58;41.77;100243.10;218593;1257;141351;-68
2023/04/30 17:23:32;;;;;;;2.30;1.70;;;;;;;12.47;41.94;100248.44;220303;1256;139537;-68
2023/04/30 17:28:38;;;;;;;5.30;2.10;;;;;;;12.37;42.34;100252.80;219830;1256;140747;-68
2023/04/30 17:33:47;;;;;;;4.60;2.00;;;;;;;12.26;42.57;100247.79;218038;1256;233675;-66
2023/04/30 17:38:56;;;;;;;5.00;1.80;;;;;;;12.09;42.86;100253.34;218617;1257;141630;-66
2023/04/30 17:44:07;;;;;;;5.40;2.00;;;;;;;11.93;43.21;100257.02;218204;1257;139585;-67
2023/04/30 17:49:20;;;;;;;2.50;2.30;;;;;;;11.78;43.28;100264.45;217831;1257;139231;-68
2023/04/30 17:54:30;;;;;;;3.50;2.40;;;;;;;11.63;43.95;100270.20;218497;1257;140597;-68
2023/04/30 18:01:02;;;;;;;5.70;2.30;;;;;;;11.42;44.83;100276.22;216236;1293;658616;-67
2023/04/30 18:06:08;;;;;;;2.70;2.10;;;;;;;11.17;45.70;100274.23;218119;1262;217503;-68
2023/04/30 18:11:14;;;;;;;2.90;2.20;;;;;;;10.94;46.35;100276.03;215937;1258;1367206;-66
2023/04/30 18:16:21;;;;;;;5.80;2.40;;;;;;;10.69;46.60;100272.38;218326;1258;138973;-66
2023/04/30 18:21:31;;;;;;;4.10;2.10;;;;;;;10.43;47.28;100276.77;217415;1256;138987;-66
2023/04/30 18:26:40;;;;;;;3.50;3.10;;;;;;;10.16;47.84;100280.88;217970;1257;138186;-69
2023/04/30 18:31:47;;;;;;;2.60;2.00;;;;;;;9.88;48.70;100291.58;217681;1259;138797;-68
2023/04/30 18:36:54;;;;;;;4.00;2.10;;;;;;;9.63;49.50;100303.40;217575;1256;139118;-66
2023/04/30 18:42:02;;;;;;;;;;;;;;;9.33;50.41;100302.55;217723;1256;138839;-65
2023/04/30 18:47:07;;;;;;;3.30;2.20;;;;;;;9.04;51.55;100304.86;217622;1256;125726;-66
2023/04/30 18:52:14;;;;;;;2.90;2.30;;;;;;;8.79;52.83;100312.59;217390;1259;138601;-65
2023/04/30 18:57:19;;;;;;;4.30;2.70;;;;;;;8.47;52.97;100319.59;218387;1260;138588;-63
2023/04/30 19:02:27;;;;;;;1.90;1.70;;;;;;;8.05;53.63;100325.31;218562;1256;139368;-66
2023/04/30 19:07:33;;;;;;;4.00;2.00;;;;;;;7.68;54.49;100328.21;217740;1256;138464;-67
2023/04/30 19:12:39;;;;;;;4.70;3.70;;;;;;;7.46;54.85;100330.69;218435;1256;138315;-68
2023/04/30 19:17:45;;;;;;;3.50;2.90;;;;;;;7.27;55.59;100331.58;217560;1257;139516;-68
2023/04/30 19:22:52;;;;;;;2.30;2.00;;;;;;;7.07;56.58;100334.67;217329;1257;138682;-65
2023/04/30 19:28:03;;;;;;;3.50;2.00;;;;;;;6.89;57.21;100330.18;218135;1261;138343;-66
2023/04/30 19:33:11;;;;;;;2.90;2.40;;;;;;;6.71;57.32;100335.58;217479;1261;246401;-67
2023/04/30 19:38:19;;;;;;;3.90;2.40;;;;;;;6.54;58.24;100330.91;220216;1259;139585;-67
2023/04/30 19:43:25;;;;;;;3.60;3.20;;;;;;;6.40;58.70;100327.64;220148;1256;138924;-67
2023/04/30 19:48:30;;;;;;;5.50;3.90;;;;;;;6.23;58.52;100326.73;218521;1256;138665;-67
2023/04/30 19:53:38;;;;;;;5.90;4.60;;;;;;;6.12;58.81;100327.22;219698;1259;138444;-67
2023/04/30 19:58:43;;;;;;;8.00;6.40;;;;;;;6.05;59.23;100326.08;218564;1259;138915;-66
2023/04/30 20:03:48;;;;;;;13.30;7.60;;;;;;;5.97;59.43;100328.27;217694;1257;137980;-66
2023/04/30 20:08:52;;;;;;;16.00;7.90;;;;;;;5.86;59.93;100331.24;218975;1256;138539;-66
2023/04/30 20:13:58;;;;;;;11.20;6.70;;;;;;;5.68;60.12;100336.40;217744;1259;139403;-66
2023/04/30 20:19:06;;;;;;;7.70;5.30;;;;;;;5.47;60.12;100334.23;217172;1261;139869;-67
2023/04/30 20:24:11;;;;;;;7.60;5.20;;;;;;;5.31;60.89;100332.46;217523;1259;138908;-67
2023/04/30 20:29:19;;;;;;;6.70;3.20;;;;;;;5.20;61.38;100339.77;217505;1261;138178;-68
2023/04/30 20:34:24;;;;;;;;;;;;;;;5.01;61.58;100343.91;219126;1261;138700;-69
2023/04/30 20:39:30;;;;;;;5.20;3.50;;;;;;;4.77;62.14;100345.67;217847;1256;127033;-67
2023/04/30 20:44:38;;;;;;;11.50;6.00;;;;;;;4.61;62.75;100347.80;217370;1262;139615;-67
2023/04/30 20:49:44;;;;;;;7.40;3.20;;;;;;;4.50;63.35;100352.93;217807;1259;139617;-66
2023/04/30 20:54:50;;;;;;;5.60;3.70;;;;;;;4.42;63.67;100351.61;217396;1256;138802;-67
2023/04/30 21:00:04;;;;;;;4.30;3.90;;;;;;;4.28;63.78;100356.03;217653;1257;139164;-67
2023/04/30 21:05:16;;;;;;;8.30;5.00;;;;;;;4.13;64.10;100360.95;217246;1261;139236;-64
2023/04/30 21:10:22;;;;;;;8.40;6.40;;;;;;;4.03;64.21;100361.34;218586;1259;140121;-64
2023/04/30 21:15:29;;;;;;;10.10;5.20;;;;;;;3.91;64.57;100360.17;218765;1259;140948;-65
2023/04/30 21:20:34;;;;;;;8.20;5.20;;;;;;;3.82;64.84;100365.09;220155;1259;140805;-66
2023/04/30 21:25:39;;;;;;;6.30;4.70;;;;;;;3.72;65.19;100368.86;218650;1256;139133;-66
2023/04/30 21:30:47;;;;;;;7.20;5.50;;;;;;;3.69;65.60;100371.84;218402;1256;139762;-65
2023/04/30 21:35:54;;;;;;;8.30;7.20;;;;;;;3.70;65.88;100376.61;218194;1260;139117;-66
2023/04/30 21:41:00;;;;;;;7.90;5.00;;;;;;;3.68;65.99;100386.52;217069;1261;139874;-63
2023/04/30 21:46:06;;;;;;;6.60;4.80;;;;;;;3.63;66.13;100388.35;220060;1256;139952;-65
2023/04/30 21:51:13;;;;;;;10.70;5.70;;;;;;;3.52;66.11;100384.91;220192;1256;139298;-66
2023/04/30 21:56:18;;;;;;;8.20;6.10;;;;;;;3.37;66.18;100390.78;217612;1261;140333;-64
2023/04/30 22:01:28;;;;;;;23.50;10.90;;;;;;;3.26;66.64;100393.64;218552;1259;139735;-63
2023/04/30 22:06:33;;;;;;;18.80;10.50;;;;;;;3.18;66.78;100397.35;217623;1260;139332;-64
2023/04/30 22:11:37;;;;;;;23.20;11.90;;;;;;;3.14;67.35;100399.54;219135;1260;140347;-63
2023/04/30 22:16:42;;;;;;;16.20;10.20;;;;;;;3.12;67.69;100403.16;218433;1260;139735;-64
2023/04/30 22:21:48;;;;;;;16.20;8.10;;;;;;;3.10;67.57;100409.89;217080;1259;139816;-64
2023/04/30 22:26:52;;;;;;;23.10;9.50;;;;;;;2.99;67.79;100418.80;217953;1259;140689;-64
2023/04/30 22:31:57;;;;;;;12.60;6.90;;;;;;;2.90;68.06;100419.08;217379;1262;139356;-64
2023/04/30 22:37:04;;;;;;;18.50;9.80;;;;;;;2.83;68.41;100419.48;217240;1258;139462;-64
2023/04/30 22:42:09;;;;;;;19.20;10.20;;;;;;;2.75;68.50;100423.42;217798;1261;139337;-63
2023/04/30 22:47:14;;;;;;;18.90;10.20;;;;;;;2.64;68.53;100424.16;217170;1261;139689;-63
2023/04/30 22:52:21;;;;;;;19.70;9.10;;;;;;;2.55;68.83;100424.89;218282;1262;140705;-66
2023/04/30 22:57:25;;;;;;;14.60;9.40;;;;;;;2.43;68.70;100428.55;217475;1260;139286;-64
2023/04/30 23:02:31;;;;;;;14.80;8.90;;;;;;;2.37;69.23;100433.29;219535;1257;139317;-63
2023/04/30 23:07:35;;;;;;;17.00;8.80;;;;;;;2.35;69.45;100430.30;217738;1262;140015;-63
2023/04/30 23:12:40;;;;;;;14.80;7.40;;;;;;;2.28;69.32;100429.50;217533;1262;141415;-64